ESGG/GOT METAR and TAF weather

Enter ICAO airport designator
Station Type Date Time Source
ESGG METAR 2018/10/16 20:20 UTC NOAA

ESGG 162020Z 22006KT 5000 BR BKN006 OVC011 12/11 Q1018


Station Type Date Time Source
ESGG Decoded METAR 2018/10/16 20:20 UTC NOAA

Goteborg / Landvetter, Sweden (ESGG) 57-40N 012-18E
Oct 16, 2018 - 04:20 PM EDT / 2018.10.16 2020 UTC
Wind: from the SW (220 degrees) at 7 MPH (6 KT):0
Visibility: 3 mile(s):0
Sky conditions: overcast
Weather: mist
Temperature: 53 F (12 C)
Dew Point: 51 F (11 C)
Relative Humidity: 93%
Pressure (altimeter): 30.06 in. Hg (1018 hPa)
ob: ESGG 162020Z 22006KT 5000 BR BKN006 OVC011 12/11 Q1018
cycle: 20

Station Type Date Time Source
ESGG TAF 2018/10/16 18:33 UTC NOAA

TAF TAF ESGG 161730Z 1618/1718 18005KT 9999 BKN020
BECMG 1618/1620 BKN006
BECMG 1620/1622 2000 BR OVC002 PROB40 1622/1706 0300 FG
BECMG 1706/1708 8000 PROB40 1708/1718 SCT015


Example: see airport list